Keiho Maru — JJ4010 — position and weather

sailwx.info

Track history (hours):
 
Tides and Currents Weather Stations Pressure Air Temp Water Temp Dewpoint Dewpoint Depression Visibility Wind Speed Wind Dir Waves Ship Positions

Keiho Maru

Last reported at 2018-Apr-25 08:46 UTC. Time now 2018-Apr-25 22:11 UTC.
Position N 34°41' E 135°12'.

Length 38 m; draft 3.6 m.

Type: Tug. MMSI: 431401501.

Date/timePositionNaut miles runAvg speedWind from/ knotsBaromVisibWave heightAir tempDewpointWater temp
2018-Apr-25 08:46N 34°41' E 135°12'1 2.7
2018-Apr-25 08:30N 34°41' E 135°13'2 4.2
2018-Apr-25 08:00N 34°39' E 135°15'2 4.1
2018-Apr-25 07:30N 34°41' E 135°13'1 1.3
2018-Apr-25 06:59N 34°41' E 135°12'0 0.0
2018-Apr-25 06:30N 34°41' E 135°12'0 0.0
2018-Apr-25 06:00N 34°41' E 135°12'0 0.0
2018-Apr-25 05:29N 34°41' E 135°12'0 0.0
2018-Apr-25 05:00N 34°41' E 135°12'0 0.0
2018-Apr-25 04:30N 34°41' E 135°12'0 0.0
2018-Apr-25 04:00N 34°41' E 135°12'0 0.0
2018-Apr-25 03:30N 34°41' E 135°12'0 0.0
2018-Apr-25 03:00N 34°41' E 135°12'0 0.0
2018-Apr-25 02:30N 34°41' E 135°12'0 0.0
2018-Apr-25 02:00N 34°41' E 135°12'0 0.0
2018-Apr-25 01:30N 34°41' E 135°12'0 0.0
2018-Apr-25 01:00N 34°41' E 135°12'0 0.0
2018-Apr-25 00:30N 34°41' E 135°12'0 0.0
2018-Apr-25 00:00N 34°41' E 135°12'2 3.5
2018-Apr-24 23:30N 34°40' E 135°14'1 1.4
2018-Apr-24 23:00N 34°40' E 135°15'2 5.0
2018-Apr-24 22:30N 34°41' E 135°17'0 0.3
2018-Apr-24 22:00N 34°41' E 135°18'1 1.9
2018-Apr-24 21:30N 34°40' E 135°18'510.0
2018-Apr-24 21:00N 34°40' E 135°12'0 0.2
2018-Apr-24 20:30N 34°41' E 135°12'0 0.0
2018-Apr-24 09:16N 34°41' E 135°12'1 4.2
2018-Apr-24 09:00N 34°41' E 135°13'2 4.1
2018-Apr-24 08:30N 34°39' E 135°15'0 0.1
2018-Apr-24 08:00N 34°39' E 135°15'0 0.5
2018-Apr-24 07:30N 34°39' E 135°15'0 0.3
2018-Apr-24 07:00N 34°39' E 135°15'1 1.1
2018-Apr-24 06:30N 34°40' E 135°15'2 3.9
2018-Apr-24 06:01N 34°41' E 135°12'0 0.0
2018-Apr-24 05:31N 34°41' E 135°12'0 0.0
2018-Apr-24 05:00N 34°41' E 135°12'0 0.0
2018-Apr-24 04:30N 34°41' E 135°12'0 0.0
2018-Apr-24 04:00N 34°41' E 135°12'0 0.0
2018-Apr-24 03:30N 34°41' E 135°12'0 0.0
2018-Apr-24 03:00N 34°41' E 135°12'0 0.0
2018-Apr-24 02:30N 34°41' E 135°12'0 0.0
2018-Apr-24 01:59N 34°41' E 135°12'0 0.0
2018-Apr-24 01:30N 34°41' E 135°12'3 6.5
2018-Apr-24 01:00N 34°38' E 135°13'4 8.5
2018-Apr-24 00:31N 34°42' E 135°15'1 1.4
2018-Apr-24 00:01N 34°42' E 135°15'0 0.2
2018-Apr-23 23:30N 34°42' E 135°15'0 0.2
2018-Apr-23 23:00N 34°42' E 135°15'0 0.1
2018-Apr-23 22:30N 34°42' E 135°15'0 0.0
2018-Apr-23 22:01N 34°42' E 135°15'3 5.9
2018-Apr-23 21:30N 34°41' E 135°12'0 0.2
2018-Apr-23 21:00N 34°41' E 135°12'0 0.0
2018-Apr-23 20:31N 34°41' E 135°12'0 0.0
2018-Apr-23 11:21N 34°41' E 135°12'1 3.0
2018-Apr-23 11:00N 34°40' E 135°13'0 0.2
2018-Apr-23 10:30N 34°40' E 135°13'0 0.0
2018-Apr-23 10:00N 34°40' E 135°13'0 0.0
2018-Apr-23 09:30N 34°40' E 135°13'4 7.3
2018-Apr-23 09:00N 34°41' E 135°18'0 0.3
2018-Apr-23 08:30N 34°41' E 135°18'1 2.9
2018-Apr-23 08:00N 34°40' E 135°18'1 2.6
2018-Apr-23 07:30N 34°41' E 135°17'4 8.3
2018-Apr-23 07:01N 34°41' E 135°12'0 0.1
2018-Apr-23 06:30N 34°41' E 135°12'0 0.0
2018-Apr-23 06:00N 34°41' E 135°12'0 0.0
2018-Apr-23 05:30N 34°41' E 135°12'0 0.0
2018-Apr-23 05:01N 34°41' E 135°12'0 0.0
2018-Apr-23 04:30N 34°41' E 135°12'0 0.0
2018-Apr-23 04:00N 34°41' E 135°12'0 0.0
2018-Apr-23 03:30N 34°41' E 135°12'0 0.0
2018-Apr-23 03:00N 34°41' E 135°12'0 0.0
2018-Apr-23 02:31N 34°41' E 135°12'0 0.0
2018-Apr-23 02:00N 34°41' E 135°12'1 3.0
2018-Apr-23 01:30N 34°40' E 135°14'0 0.4
2018-Apr-23 01:01N 34°40' E 135°14'1 3.0
2018-Apr-23 00:30N 34°40' E 135°16'2 4.8
2018-Apr-23 00:00N 34°41' E 135°13'1 1.7
2018-Apr-22 23:30N 34°41' E 135°12'0 0.0
2018-Apr-22 23:00N 34°41' E 135°12'0 0.0
2018-Apr-22 22:30N 34°41' E 135°12'0 0.0
2018-Apr-22 22:00N 34°41' E 135°12'0 0.0
2018-Apr-22 21:30N 34°41' E 135°12'0 0.0
2018-Apr-21 11:41N 34°41' E 135°12'0 0.3
2018-Apr-21 11:30N 34°41' E 135°12'3 5.2
2018-Apr-21 11:00N 34°41' E 135°15'1 1.9
2018-Apr-21 10:30N 34°40' E 135°15'1 1.3
2018-Apr-21 10:00N 34°40' E 135°14'1 2.0
2018-Apr-21 09:30N 34°40' E 135°13'0 0.0
2018-Apr-21 09:00N 34°40' E 135°13'0 0.0
2018-Apr-21 08:30N 34°40' E 135°13'0 0.0
2018-Apr-21 08:00N 34°40' E 135°13'0 0.0
2018-Apr-21 07:30N 34°40' E 135°13'0 0.0
2018-Apr-21 07:00N 34°40' E 135°13'3 5.7
2018-Apr-21 06:30N 34°41' E 135°17'1 1.6
2018-Apr-21 06:00N 34°41' E 135°17'0 0.3
2018-Apr-21 05:30N 34°41' E 135°17'0 0.9
2018-Apr-21 05:01N 34°41' E 135°18'1 1.6
2018-Apr-21 04:30N 34°40' E 135°18'1 1.3
2018-Apr-21 04:00N 34°41' E 135°17'0 0.0
2018-Apr-21 03:30N 34°41' E 135°17'0 0.0
2018-Apr-21 03:00N 34°41' E 135°17'0 0.0
2018-Apr-21 02:30N 34°41' E 135°17'0 0.0
2018-Apr-21 02:00N 34°41' E 135°17'3 6.4
2018-Apr-21 01:30N 34°41' E 135°14'0 0.1
2018-Apr-21 01:01N 34°41' E 135°14'1 2.8
2018-Apr-21 00:30N 34°40' E 135°15'1 1.2
2018-Apr-21 00:00N 34°40' E 135°16'1 2.4
2018-Apr-20 23:30N 34°41' E 135°15'1 2.1
2018-Apr-20 23:00N 34°41' E 135°16'1 2.6
2018-Apr-20 22:30N 34°39' E 135°15'2 3.4
2018-Apr-20 22:00N 34°39' E 135°14'2 4.2
2018-Apr-20 21:30N 34°41' E 135°12'0 0.0
2018-Apr-20 20:58N 34°41' E 135°12'0 0.0
2018-Apr-20 11:29N 34°41' E 135°12'2 4.1
2018-Apr-20 11:01N 34°40' E 135°14'0 0.3
2018-Apr-20 10:30N 34°40' E 135°14'1 1.8
2018-Apr-20 10:00N 34°40' E 135°13'0 0.0
2018-Apr-20 09:30N 34°40' E 135°13'0 0.0
2018-Apr-20 09:00N 34°40' E 135°13'0 0.0
2018-Apr-20 08:30N 34°40' E 135°13'0 0.0
2018-Apr-20 08:00N 34°40' E 135°13'0 0.0
2018-Apr-20 07:30N 34°40' E 135°13'0 0.0
2018-Apr-20 07:00N 34°40' E 135°13'0 0.5
2018-Apr-20 06:30N 34°40' E 135°13'0 0.1
2018-Apr-20 06:00N 34°40' E 135°13'2 4.7
2018-Apr-20 05:29N 34°42' E 135°16'0 0.0
2018-Apr-20 05:00N 34°42' E 135°16'1 3.0
2018-Apr-20 04:30N 34°41' E 135°15'3 5.3
2018-Apr-20 04:00N 34°42' E 135°18'0 0.9
2018-Apr-20 03:30N 34°42' E 135°17'0 0.4
2018-Apr-20 03:00N 34°42' E 135°17'0 0.0
2018-Apr-20 02:30N 34°42' E 135°17'1 1.7
2018-Apr-20 02:00N 34°41' E 135°17'3 5.8
2018-Apr-20 01:30N 34°40' E 135°14'0 0.7
2018-Apr-20 01:00N 34°40' E 135°14'0 0.4
2018-Apr-20 00:30N 34°40' E 135°14'0 0.0
2018-Apr-20 00:00N 34°40' E 135°14'0 0.0
2018-Apr-19 23:30N 34°40' E 135°14'0 0.0
2018-Apr-19 23:00N 34°40' E 135°14'1 1.6
2018-Apr-19 22:30N 34°40' E 135°13'1 1.2
2018-Apr-19 22:01N 34°41' E 135°14'2 4.3
2018-Apr-19 21:31N 34°39' E 135°15'3 5.9
2018-Apr-19 21:00N 34°40' E 135°12'0 1.0
2018-Apr-19 20:30N 34°41' E 135°12'0 0.0
2018-Apr-19 00:17N 34°41' E 135°12'1 3.2
2018-Apr-19 00:01N 34°41' E 135°13'4 8.4
2018-Apr-18 23:30N 34°42' E 135°18'0 0.0
2018-Apr-18 23:00N 34°42' E 135°18'0 0.7
2018-Apr-18 22:30N 34°42' E 135°18'1 2.0
2018-Apr-18 22:01N 34°41' E 135°17'0 0.0
2018-Apr-18 21:30N 34°41' E 135°17'0 0.0
2018-Apr-18 21:01N 34°41' E 135°17'0 0.0
2018-Apr-18 20:31N 34°41' E 135°17'0 0.0
2018-Apr-18 20:00N 34°41' E 135°17'0 0.0
2018-Apr-18 19:30N 34°41' E 135°17'0 0.0
2018-Apr-18 19:01N 34°41' E 135°17'0 0.0
2018-Apr-18 18:30N 34°41' E 135°17'0 0.0
2018-Apr-18 18:01N 34°41' E 135°17'0 0.0
2018-Apr-18 17:30N 34°41' E 135°17'0 0.6
2018-Apr-18 17:01N 34°41' E 135°18'2 3.3
2018-Apr-18 16:30N 34°41' E 135°16'2 4.2
2018-Apr-18 16:01N 34°40' E 135°13'0 0.0
2018-Apr-18 15:31N 34°40' E 135°13'0 0.0
2018-Apr-18 15:01N 34°40' E 135°13'0 0.0
2018-Apr-18 14:30N 34°40' E 135°13'0 0.0
2018-Apr-18 14:00N 34°40' E 135°13'0 0.0
2018-Apr-18 13:31N 34°40' E 135°13'0 0.0
2018-Apr-18 13:00N 34°40' E 135°13'0 0.0
2018-Apr-18 12:30N 34°40' E 135°13'0 0.0
2018-Apr-18 12:01N 34°40' E 135°13'0 0.0
2018-Apr-18 11:31N 34°40' E 135°13'0 0.0
2018-Apr-18 11:01N 34°40' E 135°13'1 1.6
2018-Apr-18 10:31N 34°40' E 135°14'0 1.0
2018-Apr-18 10:00N 34°40' E 135°15'1 2.7
2018-Apr-18 09:31N 34°39' E 135°16'1 1.6
2018-Apr-18 09:01N 34°39' E 135°15'0 0.0
2018-Apr-18 08:30N 34°39' E 135°15'0 0.0
2018-Apr-18 08:01N 34°39' E 135°15'0 0.0
2018-Apr-18 07:31N 34°39' E 135°15'1 2.0
2018-Apr-18 07:01N 34°40' E 135°15'1 1.4
2018-Apr-18 06:31N 34°41' E 135°15'2 4.0
2018-Apr-18 06:01N 34°41' E 135°12'0 0.0
2018-Apr-18 05:31N 34°41' E 135°12'0 0.0
2018-Apr-18 05:00N 34°41' E 135°12'0 0.0
2018-Apr-18 04:30N 34°41' E 135°12'0 0.0
2018-Apr-18 04:00N 34°41' E 135°12'0 0.0
2018-Apr-18 03:30N 34°41' E 135°12'0 0.0
2018-Apr-18 03:01N 34°41' E 135°12'0 0.0
2018-Apr-18 02:30N 34°41' E 135°12'1 1.4
2018-Apr-18 02:00N 34°41' E 135°11'1 1.4
2018-Apr-18 01:31N 34°41' E 135°12'0 0.0
2018-Apr-18 01:01N 34°41' E 135°12'0 0.0
2018-Apr-18 00:31N 34°41' E 135°12'0 0.0
2018-Apr-18 00:01N 34°41' E 135°12'0 0.0
2018-Apr-17 23:31N 34°41' E 135°12'0 0.5
2018-Apr-17 23:00N 34°40' E 135°12'0 0.3
2018-Apr-17 22:30N 34°40' E 135°12'0 0.5
2018-Apr-17 22:01N 34°41' E 135°12'0 0.3
2018-Apr-17 21:30N 34°41' E 135°12'0 0.0
2018-Apr-17 21:01N 34°41' E 135°12'  
Track history (hours):
 
Tides and Currents Weather Stations Pressure Air Temp Water Temp Dewpoint Dewpoint Depression Visibility Wind Speed Wind Dir Waves Ship Positions

Keiho Maru

Last reported at 2018-Apr-25 08:46 UTC. Time now 2018-Apr-25 22:11 UTC.
Position N 34°41' E 135°12'.

Length 38 m; draft 3.6 m.

Type: Tug. MMSI: 431401501.

Date/timePositionNaut miles runAvg speedWind from/ knotsBaromVisibWave heightAir tempDewpointWater temp
2018-Apr-25 08:46N 34°41' E 135°12'1 2.7
2018-Apr-25 08:30N 34°41' E 135°13'2 4.2
2018-Apr-25 08:00N 34°39' E 135°15'2 4.1
2018-Apr-25 07:30N 34°41' E 135°13'1 1.3
2018-Apr-25 06:59N 34°41' E 135°12'0 0.0
2018-Apr-25 06:30N 34°41' E 135°12'0 0.0
2018-Apr-25 06:00N 34°41' E 135°12'0 0.0
2018-Apr-25 05:29N 34°41' E 135°12'0 0.0
2018-Apr-25 05:00N 34°41' E 135°12'0 0.0
2018-Apr-25 04:30N 34°41' E 135°12'0 0.0
2018-Apr-25 04:00N 34°41' E 135°12'0 0.0
2018-Apr-25 03:30N 34°41' E 135°12'0 0.0
2018-Apr-25 03:00N 34°41' E 135°12'0 0.0
2018-Apr-25 02:30N 34°41' E 135°12'0 0.0
2018-Apr-25 02:00N 34°41' E 135°12'0 0.0
2018-Apr-25 01:30N 34°41' E 135°12'0 0.0
2018-Apr-25 01:00N 34°41' E 135°12'0 0.0
2018-Apr-25 00:30N 34°41' E 135°12'0 0.0
2018-Apr-25 00:00N 34°41' E 135°12'2 3.5
2018-Apr-24 23:30N 34°40' E 135°14'1 1.4
2018-Apr-24 23:00N 34°40' E 135°15'2 5.0
2018-Apr-24 22:30N 34°41' E 135°17'0 0.3
2018-Apr-24 22:00N 34°41' E 135°18'1 1.9
2018-Apr-24 21:30N 34°40' E 135°18'510.0
2018-Apr-24 21:00N 34°40' E 135°12'0 0.2
2018-Apr-24 20:30N 34°41' E 135°12'0 0.0
2018-Apr-24 09:16N 34°41' E 135°12'1 4.2
2018-Apr-24 09:00N 34°41' E 135°13'2 4.1
2018-Apr-24 08:30N 34°39' E 135°15'0 0.1
2018-Apr-24 08:00N 34°39' E 135°15'0 0.5
2018-Apr-24 07:30N 34°39' E 135°15'0 0.3
2018-Apr-24 07:00N 34°39' E 135°15'1 1.1
2018-Apr-24 06:30N 34°40' E 135°15'2 3.9
2018-Apr-24 06:01N 34°41' E 135°12'0 0.0
2018-Apr-24 05:31N 34°41' E 135°12'0 0.0
2018-Apr-24 05:00N 34°41' E 135°12'0 0.0
2018-Apr-24 04:30N 34°41' E 135°12'0 0.0
2018-Apr-24 04:00N 34°41' E 135°12'0 0.0
2018-Apr-24 03:30N 34°41' E 135°12'0 0.0
2018-Apr-24 03:00N 34°41' E 135°12'0 0.0
2018-Apr-24 02:30N 34°41' E 135°12'0 0.0
2018-Apr-24 01:59N 34°41' E 135°12'0 0.0
2018-Apr-24 01:30N 34°41' E 135°12'3 6.5
2018-Apr-24 01:00N 34°38' E 135°13'4 8.5
2018-Apr-24 00:31N 34°42' E 135°15'1 1.4
2018-Apr-24 00:01N 34°42' E 135°15'0 0.2
2018-Apr-23 23:30N 34°42' E 135°15'0 0.2
2018-Apr-23 23:00N 34°42' E 135°15'0 0.1
2018-Apr-23 22:30N 34°42' E 135°15'0 0.0
2018-Apr-23 22:01N 34°42' E 135°15'3 5.9
2018-Apr-23 21:30N 34°41' E 135°12'0 0.2
2018-Apr-23 21:00N 34°41' E 135°12'0 0.0
2018-Apr-23 20:31N 34°41' E 135°12'0 0.0
2018-Apr-23 11:21N 34°41' E 135°12'1 3.0
2018-Apr-23 11:00N 34°40' E 135°13'0 0.2
2018-Apr-23 10:30N 34°40' E 135°13'0 0.0
2018-Apr-23 10:00N 34°40' E 135°13'0 0.0
2018-Apr-23 09:30N 34°40' E 135°13'4 7.3
2018-Apr-23 09:00N 34°41' E 135°18'0 0.3
2018-Apr-23 08:30N 34°41' E 135°18'1 2.9
2018-Apr-23 08:00N 34°40' E 135°18'1 2.6
2018-Apr-23 07:30N 34°41' E 135°17'4 8.3
2018-Apr-23 07:01N 34°41' E 135°12'0 0.1
2018-Apr-23 06:30N 34°41' E 135°12'0 0.0
2018-Apr-23 06:00N 34°41' E 135°12'0 0.0
2018-Apr-23 05:30N 34°41' E 135°12'0 0.0
2018-Apr-23 05:01N 34°41' E 135°12'0 0.0
2018-Apr-23 04:30N 34°41' E 135°12'0 0.0
2018-Apr-23 04:00N 34°41' E 135°12'0 0.0
2018-Apr-23 03:30N 34°41' E 135°12'0 0.0
2018-Apr-23 03:00N 34°41' E 135°12'0 0.0
2018-Apr-23 02:31N 34°41' E 135°12'0 0.0
2018-Apr-23 02:00N 34°41' E 135°12'1 3.0
2018-Apr-23 01:30N 34°40' E 135°14'0 0.4
2018-Apr-23 01:01N 34°40' E 135°14'1 3.0
2018-Apr-23 00:30N 34°40' E 135°16'2 4.8
2018-Apr-23 00:00N 34°41' E 135°13'1 1.7
2018-Apr-22 23:30N 34°41' E 135°12'0 0.0
2018-Apr-22 23:00N 34°41' E 135°12'0 0.0
2018-Apr-22 22:30N 34°41' E 135°12'0 0.0
2018-Apr-22 22:00N 34°41' E 135°12'0 0.0
2018-Apr-22 21:30N 34°41' E 135°12'0 0.0
2018-Apr-21 11:41N 34°41' E 135°12'0 0.3
2018-Apr-21 11:30N 34°41' E 135°12'3 5.2
2018-Apr-21 11:00N 34°41' E 135°15'1 1.9
2018-Apr-21 10:30N 34°40' E 135°15'1 1.3
2018-Apr-21 10:00N 34°40' E 135°14'1 2.0
2018-Apr-21 09:30N 34°40' E 135°13'0 0.0
2018-Apr-21 09:00N 34°40' E 135°13'0 0.0
2018-Apr-21 08:30N 34°40' E 135°13'0 0.0
2018-Apr-21 08:00N 34°40' E 135°13'0 0.0
2018-Apr-21 07:30N 34°40' E 135°13'0 0.0
2018-Apr-21 07:00N 34°40' E 135°13'3 5.7
2018-Apr-21 06:30N 34°41' E 135°17'1 1.6
2018-Apr-21 06:00N 34°41' E 135°17'0 0.3
2018-Apr-21 05:30N 34°41' E 135°17'0 0.9
2018-Apr-21 05:01N 34°41' E 135°18'1 1.6
2018-Apr-21 04:30N 34°40' E 135°18'1 1.3
2018-Apr-21 04:00N 34°41' E 135°17'0 0.0
2018-Apr-21 03:30N 34°41' E 135°17'0 0.0
2018-Apr-21 03:00N 34°41' E 135°17'0 0.0
2018-Apr-21 02:30N 34°41' E 135°17'0 0.0
2018-Apr-21 02:00N 34°41' E 135°17'3 6.4
2018-Apr-21 01:30N 34°41' E 135°14'0 0.1
2018-Apr-21 01:01N 34°41' E 135°14'1 2.8
2018-Apr-21 00:30N 34°40' E 135°15'1 1.2
2018-Apr-21 00:00N 34°40' E 135°16'1 2.4
2018-Apr-20 23:30N 34°41' E 135°15'1 2.1
2018-Apr-20 23:00N 34°41' E 135°16'1 2.6
2018-Apr-20 22:30N 34°39' E 135°15'2 3.4
2018-Apr-20 22:00N 34°39' E 135°14'2 4.2
2018-Apr-20 21:30N 34°41' E 135°12'0 0.0
2018-Apr-20 20:58N 34°41' E 135°12'0 0.0
2018-Apr-20 11:29N 34°41' E 135°12'2 4.1
2018-Apr-20 11:01N 34°40' E 135°14'0 0.3
2018-Apr-20 10:30N 34°40' E 135°14'1 1.8
2018-Apr-20 10:00N 34°40' E 135°13'0 0.0
2018-Apr-20 09:30N 34°40' E 135°13'0 0.0
2018-Apr-20 09:00N 34°40' E 135°13'0 0.0
2018-Apr-20 08:30N 34°40' E 135°13'0 0.0
2018-Apr-20 08:00N 34°40' E 135°13'0 0.0
2018-Apr-20 07:30N 34°40' E 135°13'0 0.0
2018-Apr-20 07:00N 34°40' E 135°13'0 0.5
2018-Apr-20 06:30N 34°40' E 135°13'0 0.1
2018-Apr-20 06:00N 34°40' E 135°13'2 4.7
2018-Apr-20 05:29N 34°42' E 135°16'0 0.0
2018-Apr-20 05:00N 34°42' E 135°16'1 3.0
2018-Apr-20 04:30N 34°41' E 135°15'3 5.3
2018-Apr-20 04:00N 34°42' E 135°18'0 0.9
2018-Apr-20 03:30N 34°42' E 135°17'0 0.4
2018-Apr-20 03:00N 34°42' E 135°17'0 0.0
2018-Apr-20 02:30N 34°42' E 135°17'1 1.7
2018-Apr-20 02:00N 34°41' E 135°17'3 5.8
2018-Apr-20 01:30N 34°40' E 135°14'0 0.7
2018-Apr-20 01:00N 34°40' E 135°14'0 0.4
2018-Apr-20 00:30N 34°40' E 135°14'0 0.0
2018-Apr-20 00:00N 34°40' E 135°14'0 0.0
2018-Apr-19 23:30N 34°40' E 135°14'0 0.0
2018-Apr-19 23:00N 34°40' E 135°14'1 1.6
2018-Apr-19 22:30N 34°40' E 135°13'1 1.2
2018-Apr-19 22:01N 34°41' E 135°14'2 4.3
2018-Apr-19 21:31N 34°39' E 135°15'3 5.9
2018-Apr-19 21:00N 34°40' E 135°12'0 1.0
2018-Apr-19 20:30N 34°41' E 135°12'0 0.0
2018-Apr-19 00:17N 34°41' E 135°12'1 3.2
2018-Apr-19 00:01N 34°41' E 135°13'4 8.4
2018-Apr-18 23:30N 34°42' E 135°18'0 0.0
2018-Apr-18 23:00N 34°42' E 135°18'0 0.7
2018-Apr-18 22:30N 34°42' E 135°18'1 2.0
2018-Apr-18 22:01N 34°41' E 135°17'0 0.0
2018-Apr-18 21:30N 34°41' E 135°17'0 0.0
2018-Apr-18 21:01N 34°41' E 135°17'0 0.0
2018-Apr-18 20:31N 34°41' E 135°17'0 0.0
2018-Apr-18 20:00N 34°41' E 135°17'0 0.0
2018-Apr-18 19:30N 34°41' E 135°17'0 0.0
2018-Apr-18 19:01N 34°41' E 135°17'0 0.0
2018-Apr-18 18:30N 34°41' E 135°17'0 0.0
2018-Apr-18 18:01N 34°41' E 135°17'0 0.0
2018-Apr-18 17:30N 34°41' E 135°17'0 0.6
2018-Apr-18 17:01N 34°41' E 135°18'2 3.3
2018-Apr-18 16:30N 34°41' E 135°16'2 4.2
2018-Apr-18 16:01N 34°40' E 135°13'0 0.0
2018-Apr-18 15:31N 34°40' E 135°13'0 0.0
2018-Apr-18 15:01N 34°40' E 135°13'0 0.0
2018-Apr-18 14:30N 34°40' E 135°13'0 0.0
2018-Apr-18 14:00N 34°40' E 135°13'0 0.0
2018-Apr-18 13:31N 34°40' E 135°13'0 0.0
2018-Apr-18 13:00N 34°40' E 135°13'0 0.0
2018-Apr-18 12:30N 34°40' E 135°13'0 0.0
2018-Apr-18 12:01N 34°40' E 135°13'0 0.0
2018-Apr-18 11:31N 34°40' E 135°13'0 0.0
2018-Apr-18 11:01N 34°40' E 135°13'1 1.6
2018-Apr-18 10:31N 34°40' E 135°14'0 1.0
2018-Apr-18 10:00N 34°40' E 135°15'1 2.7
2018-Apr-18 09:31N 34°39' E 135°16'1 1.6
2018-Apr-18 09:01N 34°39' E 135°15'0 0.0
2018-Apr-18 08:30N 34°39' E 135°15'0 0.0
2018-Apr-18 08:01N 34°39' E 135°15'0 0.0
2018-Apr-18 07:31N 34°39' E 135°15'1 2.0
2018-Apr-18 07:01N 34°40' E 135°15'1 1.4
2018-Apr-18 06:31N 34°41' E 135°15'2 4.0
2018-Apr-18 06:01N 34°41' E 135°12'0 0.0
2018-Apr-18 05:31N 34°41' E 135°12'0 0.0
2018-Apr-18 05:00N 34°41' E 135°12'0 0.0
2018-Apr-18 04:30N 34°41' E 135°12'0 0.0
2018-Apr-18 04:00N 34°41' E 135°12'0 0.0
2018-Apr-18 03:30N 34°41' E 135°12'0 0.0
2018-Apr-18 03:01N 34°41' E 135°12'0 0.0
2018-Apr-18 02:30N 34°41' E 135°12'1 1.4
2018-Apr-18 02:00N 34°41' E 135°11'1 1.4
2018-Apr-18 01:31N 34°41' E 135°12'0 0.0
2018-Apr-18 01:01N 34°41' E 135°12'0 0.0
2018-Apr-18 00:31N 34°41' E 135°12'0 0.0
2018-Apr-18 00:01N 34°41' E 135°12'0 0.0
2018-Apr-17 23:31N 34°41' E 135°12'0 0.5
2018-Apr-17 23:00N 34°40' E 135°12'0 0.3
2018-Apr-17 22:30N 34°40' E 135°12'0 0.5
2018-Apr-17 22:01N 34°41' E 135°12'0 0.3
2018-Apr-17 21:30N 34°41' E 135°12'0 0.0
2018-Apr-17 21:01N 34°41' E 135°12'  

Dump ship's entire track history